Aeroporto :
LOGIN :

Iscrizione | Disclaimer

   EN    FR    IT 

 










Sommario :    VFR   VFR Marginale   IFR   IFR Intensivo   IFR Molto Intensivo
Visibilità : 
Base nubi : 
>= 8 km
>= 3000ft
5 / 8 km
1000 / 3000 ft
1500m / 5 km
500 / 1000 ft
800 / 1500m
200 / 500 ft
< 800m
< 200 ft
Simboli :   Temporali  Nebbia  Neve Forte  Precipitazioni Forti  Vento > 20 kt
SIGMETs :   Varie  Temporali  Ghiacco  Turbolenza  Onda orograficha  Ceneri Vulcaniche






- Altitudine del aeroporto : 336 ft
- Codice IATA : GCI


EGJB - Guernsey

ULTIMO METAR :
  • 201950Z 15017KT 9999 SCT014 07/05 Q1004

METARs OBSOLETI :
  • 201920Z 14016KT 9999 FEW014 07/05 Q1004
  • 201850Z 14017KT 9999 FEW014 07/05 Q1004
  • 201820Z 14016KT 9999 FEW015 07/04 Q1004
  • 201750Z 14015KT 9999 FEW015 07/04 Q1004
  • 201720Z 14015KT 9999 FEW015 07/04 Q1004

TAF TAF EGJB
Valido dal 20 a 18 ore il 21 a 03 ore UTC


201655Z 2018/2103 14015KT 9999 FEW012
TEMPO 2021/2103 BKN010
ATIS : +44 1481 238 957



MetMap, La meteo Aeronautica in un colpo d'occhio ! - Copyright ORBIFLY Dicembre 2007 - Disclaimer

ORBIFLY MET'MAP TEAM :

Programmazione e sviluppo : Alexandra Zaïnal
Concezione e sviluppo : Baudouin d'Aumeries
Co-Programmazione e sviluppo : Marc-Olivier Méhu
Supporto tecnico e logistico : Manuel Goepfert
Aiuto per la traduzione : Arnaldo La Scala

Contatto : metmap@orbifly.com




FONTI E CREDITI :

   NOAA